Time;durP1;ratioP1;P1;durP2;ratioP2;P2;SDS_P1;SDS_P2;PMS_P1;PMS_P2;Temp;Humidity;BMP_temperature;BMP_pressure;BME280_temperature;BME280_humidity;BME280_pressure;Samples;Min_cycle;Max_cycle;Signal;HPM_P1;HPM_P2
2020/12/26 00:01:12;;;;;;;12.10;7.97;;;2.80;89.00;;;;;;4989989;28;20490;-87
2020/12/26 00:03:38;;;;;;;13.43;8.93;;;2.80;88.60;;;;;;4990110;28;20144;-87
2020/12/26 00:06:04;;;;;;;14.73;8.57;;;2.80;88.50;;;;;;4990148;28;20121;-86
2020/12/26 00:08:32;;;;;;;13.63;8.27;;;2.80;88.70;;;;;;4991619;28;20492;-87
2020/12/26 00:10:58;;;;;;;15.30;9.15;;;2.90;88.60;;;;;;4991809;28;20043;-87
2020/12/26 00:13:24;;;;;;;13.18;8.30;;;2.80;88.70;;;;;;4990842;28;20033;-87
2020/12/26 00:15:50;;;;;;;15.43;8.55;;;2.80;88.70;;;;;;4991191;28;20030;-86
2020/12/26 00:18:15;;;;;;;14.60;9.20;;;2.80;88.80;;;;;;5004736;28;20434;-87
2020/12/26 00:20:41;;;;;;;13.27;8.82;;;2.80;89.00;;;;;;4989746;28;20050;-88
2020/12/26 00:23:06;;;;;;;15.98;9.15;;;2.80;88.70;;;;;;4975736;28;20026;-89
2020/12/26 00:25:32;;;;;;;14.60;9.18;;;2.80;88.60;;;;;;4982125;28;20033;-88
2020/12/26 00:27:58;;;;;;;12.48;8.70;;;2.80;88.10;;;;;;4990000;28;20033;-87
2020/12/26 00:30:23;;;;;;;12.07;8.45;;;2.70;87.90;;;;;;4988816;28;20030;-87
2020/12/26 00:32:49;;;;;;;12.68;8.25;;;2.70;87.40;;;;;;4989739;28;20029;-88
2020/12/26 00:35:14;;;;;;;10.10;8.30;;;2.70;87.10;;;;;;4992629;28;20059;-87
2020/12/26 00:37:40;;;;;;;11.82;7.88;;;2.70;86.80;;;;;;4989243;28;20046;-87
2020/12/26 00:40:06;;;;;;;11.77;7.20;;;2.70;86.80;;;;;;4988870;28;20034;-88
2020/12/26 00:42:31;;;;;;;11.60;8.30;;;2.70;86.60;;;;;;4990408;28;20101;-87
2020/12/26 00:44:57;;;;;;;10.65;8.43;;;2.70;86.70;;;;;;4990887;28;20445;-88
2020/12/26 00:47:23;;;;;;;11.50;7.97;;;2.60;86.80;;;;;;4991062;28;20023;-87
2020/12/26 00:49:48;;;;;;;11.15;7.20;;;2.60;87.60;;;;;;4991939;28;20481;-88
2020/12/26 00:52:14;;;;;;;10.63;7.32;;;2.70;87.10;;;;;;4987555;28;20113;-87
2020/12/26 00:54:41;;;;;;;13.05;7.25;;;2.70;86.60;;;;;;4985668;28;20023;-87
2020/12/26 00:57:06;;;;;;;11.23;6.60;;;2.60;86.60;;;;;;4990903;28;20033;-86
2020/12/26 00:59:32;;;;;;;11.55;7.68;;;2.60;86.70;;;;;;4984399;28;20018;-87
2020/12/26 01:01:57;;;;;;;10.07;6.75;;;2.60;87.10;;;;;;4991610;28;20490;-86
2020/12/26 01:04:23;;;;;;;11.00;6.65;;;2.60;87.10;;;;;;5003882;28;20034;-87
2020/12/26 01:06:53;;;;;;;11.10;6.68;;;2.60;87.30;;;;;;4976356;28;20041;-89
2020/12/26 01:09:19;;;;;;;10.68;6.68;;;2.60;87.30;;;;;;5006609;28;20010;-87
2020/12/26 01:11:44;;;;;;;11.10;7.68;;;2.60;87.40;;;;;;5014809;28;20037;-87
2020/12/26 01:14:10;;;;;;;12.15;7.13;;;2.60;88.00;;;;;;4995903;28;20119;-87
2020/12/26 01:16:36;;;;;;;14.63;8.05;;;2.60;88.40;;;;;;4994732;28;20038;-88
2020/12/26 01:19:01;;;;;;;13.15;7.70;;;2.70;88.90;;;;;;4988449;28;20026;-87
2020/12/26 01:21:27;;;;;;;10.80;8.13;;;2.60;88.60;;;;;;5009528;28;20042;-87
2020/12/26 01:23:53;;;;;;;13.07;8.15;;;2.60;88.90;;;;;;4992776;28;20086;-87
2020/12/26 01:26:18;;;;;;;12.10;8.25;;;2.60;89.00;;;;;;4995164;28;20038;-87
2020/12/26 01:28:45;;;;;;;13.38;8.30;;;2.60;89.20;;;;;;4993014;28;20477;-88
2020/12/26 01:31:12;;;;;;;10.63;7.57;;;2.60;88.50;;;;;;4992620;28;20023;-89
2020/12/26 01:33:37;;;;;;;9.55;6.97;;;2.60;88.50;;;;;;4990318;28;20030;-87
2020/12/26 01:36:03;;;;;;;10.43;6.82;;;2.60;88.40;;;;;;4990720;28;20050;-87
2020/12/26 01:38:29;;;;;;;9.68;6.43;;;2.70;88.40;;;;;;4995068;28;20034;-88
2020/12/26 01:40:54;;;;;;;8.55;6.05;;;2.60;88.10;;;;;;4995880;28;20034;-87
2020/12/26 01:43:20;;;;;;;9.43;5.90;;;2.60;87.90;;;;;;4988349;28;20116;-87
2020/12/26 01:45:46;;;;;;;8.25;5.22;;;2.60;88.00;;;;;;4993466;28;20034;-87
2020/12/26 01:48:16;;;;;;;6.60;3.83;;;2.50;88.50;;;;;;4972936;28;20034;-88
2020/12/26 01:50:43;;;;;;;7.20;3.42;;;2.40;88.00;;;;;;4988597;28;20105;-87
2020/12/26 01:53:10;;;;;;;7.10;3.47;;;2.30;88.30;;;;;;4993676;28;20486;-87
2020/12/26 01:55:36;;;;;;;8.68;3.63;;;2.20;88.50;;;;;;4993245;28;20034;-88
2020/12/26 01:58:03;;;;;;;5.10;2.83;;;2.20;88.50;;;;;;4992333;28;20018;-86
2020/12/26 02:00:29;;;;;;;6.85;3.63;;;2.10;88.10;;;;;;4992751;28;20038;-87
2020/12/26 02:02:55;;;;;;;7.60;2.58;;;2.10;89.10;;;;;;4981867;28;20046;-87
2020/12/26 02:05:21;;;;;;;5.75;2.58;;;2.00;88.80;;;;;;4993630;28;20032;-89
2020/12/26 02:07:47;;;;;;;4.82;2.92;;;2.00;88.70;;;;;;4995893;28;20466;-87
2020/12/26 02:10:16;;;;;;;3.33;1.90;;;2.00;88.80;;;;;;4993867;28;20034;-88
2020/12/26 02:12:41;;;;;;;6.35;2.38;;;1.90;88.20;;;;;;4993827;28;20024;-87
2020/12/26 02:15:07;;;;;;;4.93;2.53;;;1.80;88.40;;;;;;4987833;28;20478;-88
2020/12/26 02:17:33;;;;;;;3.28;1.88;;;1.90;88.40;;;;;;4993658;28;20553;-89
2020/12/26 02:19:58;;;;;;;5.05;2.45;;;1.80;88.60;;;;;;4994090;28;20034;-87
2020/12/26 02:22:24;;;;;;;4.45;2.72;;;1.70;88.80;;;;;;4994294;28;20092;-87
2020/12/26 02:24:50;;;;;;;6.22;2.45;;;1.60;89.40;;;;;;4994695;28;20018;-87
2020/12/26 02:27:15;;;;;;;2.10;1.70;;;1.60;89.40;;;;;;4974354;28;20053;-88
2020/12/26 02:29:41;;;;;;;3.47;1.90;;;1.50;89.60;;;;;;4992509;28;20019;-86
2020/12/26 02:32:07;;;;;;;2.60;1.80;;;1.50;89.50;;;;;;4990207;28;20034;-87
2020/12/26 02:34:32;;;;;;;4.05;1.92;;;1.50;89.60;;;;;;4990558;28;20034;-88
2020/12/26 02:36:58;;;;;;;3.38;2.10;;;1.50;89.90;;;;;;4991837;28;20034;-87
2020/12/26 02:39:24;;;;;;;5.65;2.72;;;1.50;90.00;;;;;;4977314;28;20076;-87
2020/12/26 02:41:49;;;;;;;3.90;2.70;;;1.50;90.10;;;;;;4973625;28;20430;-87
2020/12/26 02:44:15;;;;;;;6.57;3.08;;;1.50;90.10;;;;;;4993433;28;20038;-87
2020/12/26 02:46:41;;;;;;;7.45;3.42;;;1.50;90.00;;;;;;4993221;28;20209;-86
2020/12/26 02:49:06;;;;;;;7.38;3.60;;;1.50;89.80;;;;;;4990998;28;20104;-90
2020/12/26 02:51:35;;;;;;;6.32;3.55;;;1.50;90.00;;;;;;4991493;28;20118;-87
2020/12/26 02:54:01;;;;;;;6.18;3.90;;;1.60;89.30;;;;;;4992797;28;20029;-88
2020/12/26 02:56:26;;;;;;;6.00;3.97;;;1.60;89.40;;;;;;4993003;28;20421;-87
2020/12/26 02:58:52;;;;;;;7.13;4.32;;;1.50;89.60;;;;;;4986309;28;20113;-87
2020/12/26 03:01:17;;;;;;;12.45;5.35;;;1.60;89.30;;;;;;4991994;28;20413;-88
2020/12/26 03:03:43;;;;;;;5.97;4.22;;;1.50;89.50;;;;;;4991469;28;20023;-87
2020/12/26 03:06:12;;;;;;;8.75;4.63;;;1.50;90.00;;;;;;4990835;28;20040;-86
2020/12/26 03:08:40;;;;;;;7.22;4.53;;;1.50;89.80;;;;;;4990868;28;20078;-86
2020/12/26 03:11:05;;;;;;;6.35;3.90;;;1.50;89.80;;;;;;4994218;28;20390;-86
2020/12/26 03:13:31;;;;;;;8.48;5.00;;;1.60;89.70;;;;;;4986910;28;20047;-89
2020/12/26 03:16:00;;;;;;;6.57;4.00;;;1.60;90.00;;;;;;4976275;28;20150;-87
2020/12/26 03:18:25;;;;;;;8.25;4.35;;;1.60;90.00;;;;;;4990917;28;20035;-86
2020/12/26 03:20:51;;;;;;;9.15;4.90;;;1.60;89.50;;;;;;4991930;28;20092;-88
2020/12/26 03:23:17;;;;;;;11.98;5.20;;;1.70;89.60;;;;;;4992937;28;20033;-87
2020/12/26 03:25:42;;;;;;;6.22;4.50;;;1.60;89.10;;;;;;4993150;28;20073;-87
2020/12/26 03:28:08;;;;;;;7.00;3.78;;;1.60;89.80;;;;;;4988004;28;20026;-87
2020/12/26 03:30:33;;;;;;;6.03;3.83;;;1.70;89.70;;;;;;4982325;28;20169;-88
2020/12/26 03:32:59;;;;;;;4.47;3.50;;;1.60;89.20;;;;;;4989578;28;20399;-87
2020/12/26 03:35:25;;;;;;;4.90;3.65;;;1.70;89.70;;;;;;4992023;28;20073;-88
2020/12/26 03:37:50;;;;;;;9.38;4.22;;;1.70;89.70;;;;;;4993414;28;20454;-87
2020/12/26 03:40:16;;;;;;;7.05;4.13;;;1.70;89.10;;;;;;4974456;28;20486;-87
2020/12/26 03:42:41;;;;;;;6.40;4.22;;;1.70;89.70;;;;;;4992524;28;20037;-87
2020/12/26 03:45:07;;;;;;;5.90;4.07;;;1.70;89.90;;;;;;4989483;28;20036;-86
2020/12/26 03:47:33;;;;;;;6.00;4.05;;;1.70;89.80;;;;;;4975180;28;20022;-87
2020/12/26 03:49:59;;;;;;;5.47;3.92;;;1.70;89.20;;;;;;4994302;28;20037;-87
2020/12/26 03:52:24;;;;;;;7.30;4.03;;;1.70;89.40;;;;;;4996255;28;20073;-88
2020/12/26 03:54:50;;;;;;;6.13;4.30;;;1.70;89.40;;;;;;5007813;28;20014;-87
2020/12/26 03:57:16;;;;;;;6.20;4.22;;;1.70;89.20;;;;;;4999359;28;20042;-87
2020/12/26 03:59:41;;;;;;;6.72;4.20;;;1.80;89.20;;;;;;4988249;28;20057;-87
2020/12/26 04:02:07;;;;;;;5.80;4.10;;;1.70;89.20;;;;;;4993115;28;20038;-86
2020/12/26 04:04:33;;;;;;;8.50;3.95;;;1.70;89.20;;;;;;4989877;28;20418;-87
2020/12/26 04:06:59;;;;;;;8.75;4.22;;;1.70;89.90;;;;;;4989706;28;20077;-87
2020/12/26 04:09:25;;;;;;;7.30;4.03;;;1.80;89.50;;;;;;4987585;28;20447;-87
2020/12/26 04:11:50;;;;;;;14.57;5.13;;;1.80;89.60;;;;;;4992078;28;20019;-87
2020/12/26 04:14:16;;;;;;;4.55;3.63;;;1.80;89.10;;;;;;4992606;28;20446;-87
2020/12/26 04:16:41;;;;;;;6.88;4.63;;;1.70;89.70;;;;;;4989829;28;20054;-87
2020/12/26 04:19:07;;;;;;;6.45;4.30;;;1.80;89.20;;;;;;4990995;28;20113;-88
2020/12/26 04:21:33;;;;;;;7.22;4.57;;;1.80;88.90;;;;;;4990049;28;20030;-87
2020/12/26 04:23:59;;;;;;;7.72;4.25;;;1.80;89.20;;;;;;4969676;28;20022;-88
2020/12/26 04:26:24;;;;;;;6.53;4.30;;;1.70;89.00;;;;;;4992065;28;20445;-87
2020/12/26 04:28:50;;;;;;;8.77;5.20;;;1.80;89.30;;;;;;4980397;28;20023;-87
2020/12/26 04:31:17;;;;;;;10.73;5.40;;;1.80;89.90;;;;;;4988320;28;20034;-88
2020/12/26 04:33:43;;;;;;;8.07;5.30;;;1.80;88.90;;;;;;4990805;28;20088;-88
2020/12/26 04:36:09;;;;;;;7.18;5.05;;;1.70;89.00;;;;;;4989618;28;20054;-86
2020/12/26 04:38:35;;;;;;;6.75;4.20;;;1.70;88.90;;;;;;4992500;28;20381;-86
2020/12/26 04:41:01;;;;;;;9.60;4.45;;;1.70;89.00;;;;;;4993058;28;20046;-87
2020/12/26 04:43:27;;;;;;;8.63;5.35;;;1.70;89.10;;;;;;4988354;28;20025;-86
2020/12/26 04:45:54;;;;;;;7.72;4.97;;;1.70;88.90;;;;;;4990211;28;20140;-87
2020/12/26 04:48:30;;;;;;;7.68;5.00;;;1.70;88.60;;;;;;4990828;28;20386;-89
2020/12/26 04:51:05;;;;;;;6.43;4.65;;;1.70;88.90;;;;;;4990292;28;20027;-88
2020/12/26 04:53:33;;;;;;;6.00;4.30;;;1.70;88.80;;;;;;4990152;28;20049;-87
2020/12/26 04:56:03;;;;;;;6.88;4.45;;;1.70;88.40;;;;;;4990829;28;20046;-89
2020/12/26 04:58:29;;;;;;;7.05;4.55;;;1.70;88.20;;;;;;4990044;28;20540;-88
2020/12/26 05:00:55;;;;;;;6.78;4.65;;;1.70;88.20;;;;;;4989956;28;20037;-87
2020/12/26 05:03:26;;;;;;;10.10;5.13;;;1.70;88.40;;;;;;4990648;28;20027;-87
2020/12/26 05:05:54;;;;;;;;;;;1.70;87.70;;;;;;4989870;28;20034;-88
2020/12/26 05:08:19;;;;;;;8.20;4.45;;;1.60;88.00;;;;;;4991469;28;20384;-87
2020/12/26 05:10:45;;;;;;;7.22;4.60;;;1.60;87.90;;;;;;4991026;28;20026;-87
2020/12/26 05:13:12;;;;;;;13.68;5.65;;;1.70;88.50;;;;;;4985093;28;20041;-87
2020/12/26 05:15:39;;;;;;;9.10;4.85;;;1.70;88.10;;;;;;4989144;28;20023;-86
2020/12/26 05:18:05;;;;;;;11.10;5.90;;;1.70;88.10;;;;;;4973122;28;20018;-87
2020/12/26 05:20:31;;;;;;;9.95;5.90;;;1.70;88.60;;;;;;4985466;28;20073;-89
2020/12/26 05:23:11;;;;;;;10.23;5.45;;;1.70;87.70;;;;;;4991314;28;20025;-86
2020/12/26 05:25:49;;;;;;;8.15;5.13;;;1.70;88.20;;;;;;4991736;28;20038;-87
2020/12/26 05:28:17;;;;;;;9.88;5.35;;;1.70;88.30;;;;;;4990443;28;20010;-89
2020/12/26 05:30:45;;;;;;;9.23;6.10;;;1.80;87.90;;;;;;4989319;28;20019;-87
2020/12/26 05:33:12;;;;;;;10.25;5.70;;;1.80;87.00;;;;;;4990297;28;20105;-89
2020/12/26 05:35:46;;;;;;;11.00;6.18;;;1.80;86.80;;;;;;4990093;28;20042;-87
2020/12/26 05:38:22;;;;;;;8.15;5.57;;;1.80;87.50;;;;;;4991652;28;20026;-86
2020/12/26 05:40:56;;;;;;;10.07;6.78;;;1.80;87.70;;;;;;4991305;28;20060;-87
2020/12/26 05:43:32;;;;;;;11.80;5.97;;;1.80;87.60;;;;;;4966422;28;20483;-88
2020/12/26 05:45:59;;;;;;;9.48;6.03;;;1.70;87.30;;;;;;4984354;28;20042;-86
2020/12/26 05:48:27;;;;;;;8.52;5.88;;;1.70;87.50;;;;;;4990753;28;20395;-88
2020/12/26 05:51:00;;;;;;;12.82;7.13;;;1.80;87.50;;;;;;4990989;28;20027;-88
2020/12/26 05:53:27;;;;;;;10.32;6.40;;;1.80;87.70;;;;;;4989259;28;20105;-88
2020/12/26 05:55:53;;;;;;;11.15;7.20;;;1.70;87.40;;;;;;4984254;28;20027;-88
2020/12/26 05:58:24;;;;;;;11.07;6.18;;;1.70;87.60;;;;;;4984879;28;20026;-87
2020/12/26 06:00:50;;;;;;;10.35;6.80;;;1.80;87.90;;;;;;4993049;28;20072;-87
2020/12/26 06:03:22;;;;;;;10.48;6.25;;;1.80;88.30;;;;;;4993753;28;20617;-88
2020/12/26 06:05:49;;;;;;;8.52;6.03;;;1.80;88.20;;;;;;4992039;28;20537;-86
2020/12/26 06:08:16;;;;;;;9.23;5.50;;;1.80;88.30;;;;;;4992955;28;20367;-87
2020/12/26 06:10:56;;;;;;;8.32;5.72;;;1.80;88.50;;;;;;4975252;28;20070;-88
2020/12/26 06:13:24;;;;;;;9.85;6.40;;;1.80;88.70;;;;;;4993131;28;20506;-88
2020/12/26 06:15:54;;;;;;;8.88;6.10;;;1.80;88.50;;;;;;4992985;28;20026;-86
2020/12/26 06:18:22;;;;;;;7.15;5.18;;;1.80;88.70;;;;;;4990841;28;20390;-88
2020/12/26 06:20:53;;;;;;;12.73;6.22;;;1.90;89.20;;;;;;4976300;28;20030;-87
2020/12/26 06:23:23;;;;;;;12.48;6.43;;;1.90;89.30;;;;;;4976795;28;20050;-87
2020/12/26 06:25:55;;;;;;;8.90;6.43;;;1.90;89.30;;;;;;4991586;28;20032;-88
2020/12/26 06:28:24;;;;;;;9.15;6.15;;;1.90;89.30;;;;;;4991876;28;20022;-87
2020/12/26 06:30:55;;;;;;;7.60;5.78;;;1.90;89.50;;;;;;4994005;28;20044;-87
2020/12/26 06:33:24;;;;;;;8.57;6.25;;;1.90;89.30;;;;;;4988799;28;20029;-89
2020/12/26 06:35:51;;;;;;;7.75;5.43;;;1.90;89.30;;;;;;4982958;28;20066;-87
2020/12/26 06:38:19;;;;;;;8.63;5.88;;;2.00;89.00;;;;;;5018900;28;20010;-88
2020/12/26 06:40:59;;;;;;;9.57;7.07;;;2.00;89.10;;;;;;5000727;28;20050;-87
2020/12/26 06:43:52;;;;;;;9.48;6.88;;;2.00;88.90;;;;;;4991737;28;20018;-87
2020/12/26 06:46:17;;;;;;;10.90;6.45;;;2.10;89.10;;;;;;4988053;28;20030;-87
2020/12/26 06:48:44;;;;;;;7.90;6.43;;;2.00;89.10;;;;;;4993202;28;20061;-88
2020/12/26 06:51:28;;;;;;;9.38;6.68;;;2.00;88.70;;;;;;4975791;28;20117;-88
2020/12/26 06:54:04;;;;;;;9.38;6.47;;;2.10;89.00;;;;;;4962294;28;20038;-87
2020/12/26 06:56:35;;;;;;;8.13;6.32;;;2.10;89.30;;;;;;4993266;28;20395;-87
2020/12/26 06:59:08;;;;;;;12.15;6.70;;;2.10;88.90;;;;;;4993036;28;20045;-88
2020/12/26 07:01:35;;;;;;;9.93;6.63;;;2.10;88.90;;;;;;4974086;28;20440;-87
2020/12/26 07:04:07;;;;;;;8.85;6.75;;;2.10;88.90;;;;;;4992529;28;20023;-87
2020/12/26 07:06:36;;;;;;;9.15;6.60;;;2.10;89.00;;;;;;4993046;28;20532;-86
2020/12/26 07:09:03;;;;;;;10.07;6.72;;;2.10;89.40;;;;;;4990331;28;20026;-88
2020/12/26 07:11:28;;;;;;;9.52;7.38;;;2.20;89.00;;;;;;4992601;28;20066;-88
2020/12/26 07:13:54;;;;;;;10.98;7.40;;;2.20;88.20;;;;;;4992836;28;20026;-88
2020/12/26 07:16:39;;;;;;;9.32;6.07;;;2.10;88.10;;;;;;4990067;28;20026;-87
2020/12/26 07:19:23;;;;;;;8.85;6.18;;;2.20;86.60;;;;;;4987370;28;20058;-88
2020/12/26 07:22:26;;;;;;;10.88;6.65;;;2.20;86.40;;;;;;4990363;28;20034;-88
2020/12/26 07:25:07;;;;;;;9.82;5.78;;;2.20;86.90;;;;;;4984054;28;20121;-88
2020/12/26 07:27:36;;;;;;;8.43;7.05;;;2.20;87.00;;;;;;4966836;28;20019;-88
2020/12/26 07:30:08;;;;;;;12.18;7.57;;;2.20;87.40;;;;;;4989755;28;20018;-87
2020/12/26 07:32:42;;;;;;;11.07;7.88;;;2.20;88.10;;;;;;4992038;28;20406;-87
2020/12/26 07:35:20;;;;;;;10.73;7.00;;;2.20;87.30;;;;;;4993828;28;20042;-88
2020/12/26 07:38:01;;;;;;;9.52;6.75;;;2.20;87.20;;;;;;4992106;28;20030;-87
2020/12/26 07:40:32;;;;;;;10.90;7.07;;;2.30;87.50;;;;;;4990403;28;20030;-88
2020/12/26 07:43:04;;;;;;;14.45;8.32;;;2.30;87.30;;;;;;4987184;28;20022;-89
2020/12/26 07:45:32;;;;;;;14.82;7.78;;;2.30;87.80;;;;;;4973842;28;20518;-88
2020/12/26 07:48:00;;;;;;;9.23;6.43;;;2.30;86.80;;;;;;4990020;28;20030;-88
2020/12/26 07:50:29;;;;;;;15.35;8.43;;;2.30;86.80;;;;;;4991024;28;20101;-87
2020/12/26 07:52:57;;;;;;;15.38;8.50;;;2.30;86.90;;;;;;4991268;28;20113;-89
2020/12/26 07:55:23;;;;;;;12.68;7.55;;;2.30;86.80;;;;;;4989239;28;20040;-87
2020/12/26 07:58:00;;;;;;;12.65;7.45;;;2.30;86.90;;;;;;4990024;28;20116;-89
2020/12/26 08:00:27;;;;;;;12.40;7.50;;;2.30;86.60;;;;;;4989524;28;20386;-89
2020/12/26 08:02:54;;;;;;;10.32;7.35;;;2.30;86.40;;;;;;4991179;28;20033;-88
2020/12/26 08:05:24;;;;;;;9.25;7.68;;;2.20;86.30;;;;;;4974545;28;20073;-89
2020/12/26 08:07:50;;;;;;;12.07;7.38;;;2.30;86.20;;;;;;4991020;28;20026;-89
2020/12/26 08:10:16;;;;;;;10.07;6.97;;;2.30;86.40;;;;;;4990215;28;20486;-88
2020/12/26 08:12:58;;;;;;;11.60;7.40;;;2.30;85.70;;;;;;4990998;28;20029;-88
2020/12/26 08:15:26;;;;;;;10.10;6.97;;;2.30;85.60;;;;;;4989674;28;20032;-89
2020/12/26 08:17:55;;;;;;;9.93;6.15;;;2.30;85.90;;;;;;4989955;28;20023;-88
2020/12/26 08:20:22;;;;;;;8.35;5.82;;;2.30;85.10;;;;;;4989257;28;20034;-87
2020/12/26 08:22:48;;;;;;;8.95;5.88;;;2.40;84.90;;;;;;4988187;28;20022;-90
2020/12/26 08:25:16;;;;;;;13.35;6.05;;;2.40;83.50;;;;;;4991157;28;20097;-88
2020/12/26 08:27:42;;;;;;;10.45;5.82;;;2.40;83.10;;;;;;4974656;28;20022;-88
2020/12/26 08:30:13;;;;;;;6.93;4.47;;;2.40;83.50;;;;;;4990599;28;20073;-86
2020/12/26 08:33:09;;;;;;;5.93;4.53;;;2.50;83.50;;;;;;4986675;28;20034;-87
2020/12/26 08:35:39;;;;;;;5.85;4.43;;;2.50;82.70;;;;;;4987989;28;20471;-88
2020/12/26 08:38:11;;;;;;;6.78;4.45;;;2.50;83.10;;;;;;4991830;28;20019;-89
2020/12/26 08:40:39;;;;;;;8.13;4.45;;;2.40;82.70;;;;;;4990132;28;20072;-88
2020/12/26 08:43:12;;;;;;;9.35;4.85;;;2.50;82.90;;;;;;4973930;28;20094;-89
2020/12/26 08:45:38;;;;;;;6.55;4.47;;;2.50;82.60;;;;;;4991623;28;20100;-89
2020/12/26 08:48:16;;;;;;;8.15;4.68;;;2.50;82.50;;;;;;4983281;28;20485;-89
2020/12/26 08:50:42;;;;;;;6.55;4.68;;;2.50;81.60;;;;;;4970778;28;20126;-88
2020/12/26 08:53:10;;;;;;;8.68;4.70;;;2.50;81.90;;;;;;4989484;28;20405;-88
2020/12/26 08:55:46;;;;;;;8.80;5.00;;;2.50;82.20;;;;;;4991657;28;20038;-89
2020/12/26 08:58:25;;;;;;;7.07;4.53;;;2.50;82.20;;;;;;4988896;28;20106;-89
2020/12/26 09:00:52;;;;;;;8.50;4.93;;;2.60;81.80;;;;;;4987908;28;20065;-89
2020/12/26 09:03:20;;;;;;;7.38;4.90;;;2.60;81.60;;;;;;4989482;28;20023;-89
2020/12/26 09:05:46;;;;;;;7.40;5.32;;;2.60;82.50;;;;;;4989681;28;20023;-90
2020/12/26 09:08:12;;;;;;;10.45;6.25;;;2.70;82.10;;;;;;4992992;28;20037;-93
2020/12/26 09:10:39;;;;;;;10.00;6.57;;;2.60;81.50;;;;;;4992389;28;20046;-88
2020/12/26 09:13:06;;;;;;;9.77;5.72;;;2.70;82.30;;;;;;4975492;28;20037;-91
2020/12/26 09:15:55;;;;;;;9.23;5.30;;;2.70;81.70;;;;;;4975816;28;20034;-90
2020/12/26 09:18:25;;;;;;;8.43;5.72;;;2.70;81.80;;;;;;4988808;28;20022;-88
2020/12/26 09:20:56;;;;;;;10.00;6.45;;;2.70;81.80;;;;;;5014629;28;20112;-89
2020/12/26 09:23:23;;;;;;;10.15;5.95;;;2.70;82.00;;;;;;4997576;28;20022;-91
2020/12/26 09:25:50;;;;;;;13.25;6.07;;;2.70;82.30;;;;;;4973742;28;20022;-89
2020/12/26 09:28:17;;;;;;;10.88;6.15;;;2.70;81.60;;;;;;4989889;28;20474;-90
2020/12/26 09:30:42;;;;;;;7.32;6.20;;;2.70;82.70;;;;;;4992783;28;20022;-87
2020/12/26 09:33:08;;;;;;;8.60;5.88;;;2.70;82.00;;;;;;4994482;28;20114;-88
2020/12/26 09:35:34;;;;;;;11.85;6.47;;;2.80;82.10;;;;;;4996706;28;20457;-87
2020/12/26 09:38:01;;;;;;;8.85;6.45;;;2.80;82.60;;;;;;4995437;28;20030;-89
2020/12/26 09:40:34;;;;;;;10.40;7.03;;;2.80;82.50;;;;;;4993950;28;20042;-88
2020/12/26 09:43:01;;;;;;;10.48;6.88;;;2.90;82.70;;;;;;4977485;28;20034;-89
2020/12/26 09:45:27;;;;;;;10.10;7.15;;;2.80;82.30;;;;;;4992017;28;20030;-87
2020/12/26 09:47:57;;;;;;;9.75;6.70;;;2.90;82.00;;;;;;4992725;28;20061;-88
2020/12/26 09:50:26;;;;;;;8.82;6.60;;;2.90;82.60;;;;;;4995130;28;20022;-88
2020/12/26 09:52:52;;;;;;;9.50;7.45;;;2.90;81.60;;;;;;4976444;28;20030;-88
2020/12/26 09:55:18;;;;;;;9.90;7.05;;;2.90;82.30;;;;;;4994845;28;20022;-88
2020/12/26 09:57:43;;;;;;;8.93;6.20;;;2.90;82.10;;;;;;4992929;28;20035;-89
2020/12/26 10:00:10;;;;;;;10.23;6.00;;;2.90;81.00;;;;;;4991457;28;20034;-87
2020/12/26 10:02:36;;;;;;;8.95;6.45;;;2.80;81.00;;;;;;4993280;28;20419;-88
2020/12/26 10:05:04;;;;;;;10.85;7.18;;;2.90;81.60;;;;;;4994784;28;20147;-88
2020/12/26 10:07:31;;;;;;;11.35;8.27;;;2.90;82.40;;;;;;4991836;28;20491;-88
2020/12/26 10:09:57;;;;;;;12.40;8.00;;;2.90;82.10;;;;;;4992365;28;20556;-89
2020/12/26 10:12:23;;;;;;;11.15;7.75;;;2.80;81.80;;;;;;4994141;28;20022;-87
2020/12/26 10:14:48;;;;;;;10.75;8.13;;;2.90;82.50;;;;;;4994247;28;20041;-87
2020/12/26 10:17:14;;;;;;;10.55;7.25;;;3.00;82.20;;;;;;4994650;28;20073;-90
2020/12/26 10:19:40;;;;;;;11.52;8.27;;;3.00;82.00;;;;;;4995601;28;20038;-89
2020/12/26 10:22:05;;;;;;;9.00;7.57;;;3.10;81.80;;;;;;4993637;28;20069;-89
2020/12/26 10:24:31;;;;;;;12.98;7.95;;;3.10;81.10;;;;;;5007623;28;20022;-89
2020/12/26 10:26:57;;;;;;;10.57;7.72;;;3.10;80.90;;;;;;4977536;28;20022;-88
2020/12/26 10:29:22;;;;;;;12.35;8.38;;;3.10;80.90;;;;;;4993633;28;20034;-89
2020/12/26 10:31:48;;;;;;;13.13;8.63;;;3.20;81.40;;;;;;4995407;28;20038;-88
2020/12/26 10:34:14;;;;;;;12.10;8.23;;;3.20;82.00;;;;;;4977606;28;20023;-89
2020/12/26 10:36:43;;;;;;;10.93;7.30;;;3.20;80.80;;;;;;4985059;28;20058;-89
2020/12/26 10:39:09;;;;;;;11.93;7.53;;;3.20;80.30;;;;;;4984718;28;20026;-89
2020/12/26 10:41:34;;;;;;;10.05;7.45;;;3.30;80.40;;;;;;4991744;28;20064;-90
2020/12/26 10:44:00;;;;;;;10.25;7.90;;;3.30;81.00;;;;;;4974746;28;20022;-90
2020/12/26 10:46:26;;;;;;;10.93;8.07;;;3.30;80.10;;;;;;4977509;28;20045;-88
2020/12/26 10:48:52;;;;;;;11.93;8.40;;;3.30;80.50;;;;;;4993659;28;20018;-90
2020/12/26 10:51:17;;;;;;;12.45;8.55;;;3.30;80.70;;;;;;4990826;28;20026;-90
2020/12/26 10:53:43;;;;;;;11.85;8.52;;;3.30;80.60;;;;;;4993111;28;20078;-90
2020/12/26 10:56:09;;;;;;;15.27;10.98;;;3.30;81.00;;;;;;4994785;28;20030;-89
2020/12/26 10:58:34;;;;;;;11.00;8.48;;;3.30;80.30;;;;;;4992153;28;20054;-90
2020/12/26 11:01:00;;;;;;;10.77;8.13;;;3.20;80.50;;;;;;4992727;28;20089;-89
2020/12/26 11:03:26;;;;;;;13.00;7.82;;;3.20;81.30;;;;;;4991522;28;20030;-89
2020/12/26 11:05:51;;;;;;;12.00;7.80;;;3.30;81.90;;;;;;4991089;28;20026;-91
2020/12/26 11:08:17;;;;;;;11.43;7.90;;;3.30;81.90;;;;;;4992615;28;20038;-89
2020/12/26 11:10:44;;;;;;;10.05;7.53;;;3.30;81.40;;;;;;4974961;28;20490;-90
2020/12/26 11:13:10;;;;;;;10.55;8.45;;;3.20;80.80;;;;;;4986427;28;20029;-89
2020/12/26 11:15:36;;;;;;;8.50;7.25;;;3.20;81.40;;;;;;4989884;28;20034;-90
2020/12/26 11:18:03;;;;;;;10.90;7.47;;;3.10;80.90;;;;;;4975684;28;20499;-88
2020/12/26 11:20:29;;;;;;;9.70;7.43;;;3.20;81.30;;;;;;4974389;28;20075;-89
2020/12/26 11:22:54;;;;;;;9.15;7.40;;;3.20;80.90;;;;;;4993670;28;20489;-89
2020/12/26 11:25:20;;;;;;;10.70;7.78;;;3.20;81.20;;;;;;4991292;28;20088;-88
2020/12/26 11:27:45;;;;;;;12.57;7.88;;;3.20;81.10;;;;;;4990103;28;20033;-88
2020/12/26 11:30:11;;;;;;;11.68;7.70;;;3.20;81.30;;;;;;4973633;28;20022;-88
2020/12/26 11:32:37;;;;;;;13.35;8.70;;;3.20;81.60;;;;;;4991093;28;20030;-89
2020/12/26 11:35:03;;;;;;;11.10;7.47;;;3.20;81.00;;;;;;4975943;28;20078;-87
2020/12/26 11:37:30;;;;;;;10.32;7.90;;;3.20;81.00;;;;;;4991875;28;20367;-89
2020/12/26 11:39:55;;;;;;;11.00;7.18;;;3.10;80.80;;;;;;4991863;28;20135;-88
2020/12/26 11:42:21;;;;;;;9.80;7.70;;;3.10;81.20;;;;;;4975355;28;20034;-88
2020/12/26 11:44:47;;;;;;;12.35;7.65;;;3.10;81.30;;;;;;4975551;28;20030;-88
2020/12/26 11:47:12;;;;;;;12.88;7.72;;;3.10;81.70;;;;;;4993057;28;20462;-87
2020/12/26 11:49:38;;;;;;;12.52;8.55;;;3.20;81.80;;;;;;4988772;28;20018;-88
2020/12/26 11:52:04;;;;;;;13.10;8.00;;;3.20;81.00;;;;;;4990556;28;20036;-88
2020/12/26 11:54:29;;;;;;;13.00;9.13;;;3.30;81.60;;;;;;4989660;28;20049;-89
2020/12/26 11:56:55;;;;;;;16.77;10.30;;;3.30;81.90;;;;;;4991417;28;20049;-88
2020/12/26 11:59:22;;;;;;;16.63;9.35;;;3.30;81.90;;;;;;4991985;28;20116;-88
2020/12/26 12:01:52;;;;;;;14.63;9.00;;;3.40;81.10;;;;;;4987648;28;20129;-89
2020/12/26 12:04:18;;;;;;;33.08;20.77;;;3.30;81.10;;;;;;4985077;28;20041;-90
2020/12/26 12:06:46;;;;;;;27.23;16.08;;;3.30;81.20;;;;;;5007810;28;20086;-89
2020/12/26 12:09:11;;;;;;;14.98;8.95;;;3.40;81.30;;;;;;4991909;28;20110;-89
2020/12/26 12:11:37;;;;;;;17.48;10.43;;;3.40;80.50;;;;;;4990550;28;20483;-88
2020/12/26 12:14:03;;;;;;;15.77;10.18;;;3.40;80.00;;;;;;4974807;28;20034;-88
2020/12/26 12:16:29;;;;;;;15.65;10.20;;;3.40;80.70;;;;;;4987497;28;20489;-88
2020/12/26 12:18:55;;;;;;;16.02;8.73;;;3.50;81.00;;;;;;4973165;28;20030;-88
2020/12/26 12:21:21;;;;;;;12.23;8.30;;;3.40;80.10;;;;;;4987914;28;20080;-88
2020/12/26 12:23:47;;;;;;;12.60;8.27;;;3.40;80.70;;;;;;4988384;28;20026;-88
2020/12/26 12:26:26;;;;;;;12.85;8.27;;;3.40;80.60;;;;;;4973545;28;20478;-87
2020/12/26 12:28:54;;;;;;;12.77;8.55;;;3.30;80.50;;;;;;4992264;28;20501;-89
2020/12/26 12:31:26;;;;;;;10.70;8.57;;;3.20;80.90;;;;;;4992041;28;20049;-90
2020/12/26 12:33:53;;;;;;;13.55;8.27;;;3.30;82.10;;;;;;4992920;28;20031;-91
2020/12/26 12:36:19;;;;;;;12.02;7.68;;;3.20;81.10;;;;;;4974223;28;20225;-90
2020/12/26 12:38:45;;;;;;;13.40;8.93;;;3.20;81.30;;;;;;4988563;28;20074;-89
2020/12/26 12:41:14;;;;;;;13.40;8.00;;;3.20;81.20;;;;;;4991837;28;20070;-88
2020/12/26 12:43:40;;;;;;;14.48;8.52;;;3.20;81.60;;;;;;4990178;28;20033;-90
2020/12/26 12:46:06;;;;;;;12.40;7.90;;;3.20;81.00;;;;;;4988309;28;20030;-90
2020/12/26 12:48:31;;;;;;;12.65;7.65;;;3.20;81.30;;;;;;4991581;28;20473;-90
2020/12/26 12:50:57;;;;;;;13.85;8.80;;;3.20;80.80;;;;;;4973784;28;20031;-90
2020/12/26 12:53:23;;;;;;;12.55;7.85;;;3.10;80.80;;;;;;4991883;28;20026;-86
2020/12/26 12:55:48;;;;;;;12.43;7.82;;;3.20;81.40;;;;;;4990399;28;20031;-87